METAR AND TAF INFORMATION
METAR FOR ENHD
ADDS - METARS form results

(1323 UTC 27 February 2020)
Data provider http://aviationweather.gov/metar/data/
 
METAR text: ENHD 271320Z 15011KT 9999 FEW023 SCT036 BKN200 03/M01 Q0992
Conditions at: ENHD (HAUGESUND/KARMOY, NO) observed 1320 UTC 27 February 2020
Temperature: 3.0°C (37°F)
Dewpoint: -1.0°C (30°F) [RH = 75%]
Pressure (altimeter): 29.29 inches Hg (992.0 mb)
Winds: from the SSE (150 degrees) at 13 MPH (11 knots; 5.7 m/s)
Visibility: 6 or more miles (10+ km)
Ceiling: 20000 feet AGL
Clouds: few clouds at 2300 feet AGL
scattered clouds at 3600 feet AGL
broken clouds at 20000 feet AGL
Weather: no significant weather observed at this time

METAR text: ENHD 271250Z 15012KT 9999 FEW025 BKN051 04/M01 Q0992
Conditions at: ENHD (HAUGESUND/KARMOY, NO) observed 1250 UTC 27 February 2020
Temperature: 4.0°C (39°F)
Dewpoint: -1.0°C (30°F) [RH = 70%]
Pressure (altimeter): 29.29 inches Hg (992.0 mb)
Winds: from the SSE (150 degrees) at 14 MPH (12 knots; 6.2 m/s)
Visibility: 6 or more miles (10+ km)
Ceiling: 5100 feet AGL
Clouds: few clouds at 2500 feet AGL
broken clouds at 5100 feet AGL
Weather: no significant weather observed at this time

Forecast for: ENHD (HAUGESUND/KARMOY, NO)
Text: TAF ENHD 271100Z 2712/2721 14018KT 9999 SCT012 BKN020
Forecast period: 1200 to 2100 UTC 27 February 2020
Forecast type: FROM: standard forecast or significant change
Winds: from the SE (140 degrees) at 21 MPH (18 knots; 9.3 m/s)
Visibility: 6 or more miles 10+ km)
Ceiling: 2000 feet AGL
Clouds: scattered clouds at 1200 feet AGL
broken clouds at 2000 feet AGL
Weather: no significant weather forecast for this period
Text: TEMPO 2712/2721 1200 SHSN VV008
Forecast period: 1200 to 2100 UTC 27 February 2020
Forecast type: TEMPORARY: The following changes expected for less than half the time period
Visibility: 0.75 miles (1.21 km)
Ceiling: indefinite ceiling with vertical visibility of 800 feet AGL
Clouds: obscured sky
Weather: SHSN  (snow showers)
Text: PROB30
Forecast period: 1200 to 1800 UTC 27 February 2020
Forecast type: TEMPORARY: The following changes expected for less than half the time period
Visibility: missing
Ceiling: unknown
Clouds: missing
Weather: TS  (thunderstorm)

 AIRPORT MAP

 RUNWAY INFORMATION
Runway 14 Runway length 6957 ft Runway width 148 ft
Runway elevation 61 ft Runway displaced threshold 197 ft Runway heading 134
Runway 32 Runway length 6957 ft Runway width 148 ft
Runway elevation 86 ft Runway displaced threshold 197 ft Runway heading 314

 AIRPORT FREQUENCIES
Type ATIS Name ATIS Frequency 118.175 MHZ
Type TWR Name TWR Frequency 120.5 MHZ

 AIRPORT NEAR NAVIGATION AIDS
Type VOR-DME Name Karmoy Frequency 115150 KHZ



Powered by Virtual Airlines Manager [v2.6.2]